createdAt,value
2022-11-13T00:03:15.343Z,11.90
2022-11-13T00:08:31.029Z,11.75
2022-11-13T00:13:47.929Z,11.75
2022-11-13T00:19:03.109Z,11.82
2022-11-13T00:24:18.367Z,12.01
2022-11-13T00:29:34.560Z,11.59
2022-11-13T00:34:49.761Z,11.40
2022-11-13T00:40:05.347Z,11.38
2022-11-13T00:45:21.247Z,11.24
2022-11-13T00:50:42.890Z,10.86
2022-11-13T00:55:59.926Z,10.41
2022-11-13T01:01:17.151Z,10.26
2022-11-13T01:06:34.804Z,10.11
2022-11-13T01:11:49.949Z,9.61
2022-11-13T01:17:05.911Z,9.29
2022-11-13T01:22:21.506Z,9.14
2022-11-13T01:27:39.766Z,8.88
2022-11-13T01:32:55.777Z,8.90
2022-11-13T01:38:14.309Z,8.86
2022-11-13T01:43:30.820Z,8.69
2022-11-13T01:48:50.724Z,8.84
2022-11-13T01:54:07.452Z,8.68
2022-11-13T01:59:24.002Z,8.39
2022-11-13T02:04:39.869Z,8.27
2022-11-13T02:09:57.565Z,8.33
2022-11-13T02:15:14.653Z,8.13
2022-11-13T02:20:35.367Z,8.19
2022-11-13T02:25:53.054Z,8.49
2022-11-13T02:31:12.195Z,8.59
2022-11-13T02:36:30.144Z,8.79
2022-11-13T02:41:46.255Z,9.06
2022-11-13T02:47:05.871Z,8.91
2022-11-13T02:52:24.443Z,8.87
2022-11-13T02:57:40.481Z,8.94
2022-11-13T03:02:56.269Z,9.09
2022-11-13T03:08:11.415Z,9.06
2022-11-13T03:13:29.631Z,9.20
2022-11-13T03:18:45.013Z,9.70
2022-11-13T03:24:03.268Z,10.10
2022-11-13T03:29:19.298Z,10.35
2022-11-13T03:34:34.771Z,10.40
2022-11-13T03:39:49.863Z,10.07
2022-11-13T03:45:06.020Z,9.56
2022-11-13T03:50:21.377Z,9.21
2022-11-13T03:55:36.820Z,9.30
2022-11-13T04:00:54.453Z,9.25
2022-11-13T04:06:09.798Z,8.85
2022-11-13T04:11:25.292Z,9.01
2022-11-13T04:16:41.265Z,9.19
2022-11-13T04:21:56.247Z,9.24
2022-11-13T04:27:11.630Z,9.32
2022-11-13T04:32:28.161Z,9.12
2022-11-13T04:37:43.395Z,8.95
2022-11-13T04:42:58.531Z,9.13
2022-11-13T04:48:15.455Z,9.18
2022-11-13T04:53:31.059Z,9.27
2022-11-13T04:58:46.645Z,9.74
2022-11-13T05:04:03.169Z,10.24
2022-11-13T05:09:19.101Z,10.52
2022-11-13T05:14:40.212Z,10.75
2022-11-13T05:19:56.064Z,10.38
2022-11-13T05:25:11.287Z,9.95
2022-11-13T05:30:26.847Z,10.33
2022-11-13T05:35:42.897Z,10.61
2022-11-13T05:41:04.459Z,10.90
2022-11-13T05:46:22.630Z,10.86
2022-11-13T05:51:39.055Z,10.62
2022-11-13T05:56:54.512Z,10.56
2022-11-13T06:02:15.576Z,10.56
2022-11-13T06:07:35.191Z,10.41
2022-11-13T06:12:50.534Z,10.51
2022-11-13T06:18:07.132Z,10.43
2022-11-13T06:23:23.251Z,10.75
2022-11-13T06:28:38.709Z,10.98
2022-11-13T06:33:59.161Z,10.87
2022-11-13T06:39:15.375Z,10.89
2022-11-13T06:44:32.027Z,11.31
2022-11-13T06:49:48.625Z,11.50
2022-11-13T06:55:05.375Z,11.51
2022-11-13T07:00:20.864Z,11.64
2022-11-13T07:05:36.327Z,11.73
2022-11-13T07:10:58.185Z,11.83
2022-11-13T07:16:18.472Z,11.61
2022-11-13T07:21:36.118Z,11.68
2022-11-13T07:26:52.024Z,11.48
2022-11-13T07:32:07.682Z,11.52
2022-11-13T07:37:22.857Z,11.75
2022-11-13T07:42:39.097Z,11.69
2022-11-13T07:47:59.745Z,11.63
2022-11-13T07:53:20.777Z,11.18
2022-11-13T07:58:36.841Z,10.96
2022-11-13T08:03:52.022Z,11.06
2022-11-13T08:09:07.090Z,10.93
2022-11-13T08:14:23.076Z,10.85
2022-11-13T08:19:38.215Z,10.70
2022-11-13T08:24:53.586Z,11.00
2022-11-13T08:30:10.537Z,10.83
2022-11-13T08:35:29.413Z,10.95
2022-11-13T08:40:45.163Z,11.26
2022-11-13T08:46:01.259Z,11.34
2022-11-13T08:51:18.851Z,11.16
2022-11-13T08:56:34.116Z,11.44
2022-11-13T09:01:50.546Z,11.39
2022-11-13T09:07:06.836Z,11.12
2022-11-13T09:12:22.944Z,11.24
2022-11-13T09:17:41.232Z,11.32
2022-11-13T09:22:56.855Z,11.42
2022-11-13T09:28:12.261Z,11.43
2022-11-13T09:33:28.331Z,11.51
2022-11-13T09:38:43.723Z,11.60
2022-11-13T09:44:04.930Z,11.39
2022-11-13T09:49:25.578Z,11.72
2022-11-13T09:54:40.947Z,11.76
2022-11-13T09:59:59.939Z,11.62
2022-11-13T10:05:21.282Z,11.73
2022-11-13T10:10:57.951Z,11.71
2022-11-13T10:16:18.696Z,11.79
2022-11-13T10:21:42.508Z,12.20
2022-11-13T10:26:58.859Z,12.50
2022-11-13T10:32:20.310Z,12.15
2022-11-13T10:37:45.446Z,12.46
2022-11-13T10:43:14.364Z,12.48
2022-11-13T10:48:33.660Z,12.43
2022-11-13T10:53:55.565Z,12.70
2022-11-13T10:59:12.553Z,12.72
2022-11-13T11:04:27.829Z,12.55
2022-11-13T11:09:46.215Z,12.65
2022-11-13T11:15:16.319Z,12.97
2022-11-13T11:20:40.504Z,12.68
2022-11-13T11:26:00.122Z,12.95
2022-11-13T11:31:21.350Z,12.96
2022-11-13T11:36:41.837Z,13.14
2022-11-13T11:42:01.006Z,13.26
2022-11-13T11:47:18.130Z,13.32
2022-11-13T11:52:48.063Z,13.35
2022-11-13T11:58:06.759Z,13.40
2022-11-13T12:03:40.687Z,13.46
2022-11-13T12:09:02.318Z,13.47
2022-11-13T12:14:23.178Z,13.51
2022-11-13T12:19:43.600Z,13.48
2022-11-13T12:25:09.071Z,13.46
2022-11-13T12:30:28.981Z,13.37
2022-11-13T12:35:47.960Z,13.48
2022-11-13T12:41:08.665Z,13.53
2022-11-13T12:46:32.706Z,13.51
2022-11-13T12:51:53.918Z,13.57
2022-11-13T12:57:27.256Z,13.53
2022-11-13T13:02:56.556Z,13.59
2022-11-13T13:08:31.505Z,13.56
2022-11-13T13:13:50.126Z,13.28
2022-11-13T13:19:22.690Z,13.45
2022-11-13T13:24:39.385Z,13.55
2022-11-13T13:29:54.771Z,13.53
2022-11-13T13:35:14.654Z,13.57
2022-11-13T13:40:36.267Z,13.63
2022-11-13T13:45:57.266Z,13.62
2022-11-13T13:51:17.221Z,13.53
2022-11-13T13:56:32.562Z,13.68
2022-11-13T14:01:53.538Z,13.60
2022-11-13T14:07:24.711Z,13.64
2022-11-13T14:12:47.671Z,13.73
2022-11-13T14:18:07.297Z,13.74
2022-11-13T14:23:27.401Z,13.76
2022-11-13T14:28:44.733Z,13.73
2022-11-13T14:34:01.039Z,13.84
2022-11-13T14:39:21.895Z,13.84
2022-11-13T14:44:40.345Z,13.86
2022-11-13T14:49:55.892Z,13.84
2022-11-13T14:55:23.978Z,13.84
2022-11-13T15:00:39.301Z,13.53
2022-11-13T15:05:54.904Z,13.36
2022-11-13T15:11:14.165Z,13.45
2022-11-13T15:16:30.814Z,13.57
2022-11-13T15:22:05.593Z,13.70
2022-11-13T15:27:22.797Z,13.70
2022-11-13T15:32:41.117Z,13.72
2022-11-13T15:37:56.701Z,13.79
2022-11-13T15:43:21.699Z,13.82
2022-11-13T15:48:36.923Z,13.75
2022-11-13T15:53:54.101Z,13.66
2022-11-13T15:59:13.096Z,13.50
2022-11-13T16:04:50.524Z,13.28
2022-11-13T16:10:04.380Z,13.19
2022-11-13T16:15:20.877Z,13.08
2022-11-13T16:20:38.540Z,13.06
2022-11-13T16:25:57.175Z,13.25
2022-11-13T16:31:13.319Z,13.07
2022-11-13T16:36:30.703Z,13.01
2022-11-13T16:41:46.485Z,13.16
2022-11-13T16:47:02.757Z,12.71
2022-11-13T16:52:17.944Z,12.35
2022-11-13T16:57:33.393Z,12.12
2022-11-13T17:02:50.384Z,11.79
2022-11-13T17:08:13.471Z,11.83
2022-11-13T17:13:28.745Z,11.69
2022-11-13T17:18:50.438Z,11.82
2022-11-13T17:24:08.904Z,11.57
2022-11-13T17:29:26.079Z,11.78
2022-11-13T17:34:48.665Z,11.45
2022-11-13T17:40:04.466Z,11.34
2022-11-13T17:45:20.050Z,11.36
2022-11-13T17:50:35.927Z,11.37
2022-11-13T17:55:55.107Z,11.34
2022-11-13T18:01:11.880Z,11.27
2022-11-13T18:06:28.254Z,11.27
2022-11-13T18:11:43.747Z,11.22
2022-11-13T18:16:58.967Z,11.21
2022-11-13T18:22:15.392Z,11.21
2022-11-13T18:27:30.692Z,11.18
2022-11-13T18:32:46.053Z,11.08
2022-11-13T18:38:01.960Z,11.14
2022-11-13T18:43:17.842Z,11.33
2022-11-13T18:48:34.013Z,11.35
2022-11-13T18:53:50.562Z,11.15
2022-11-13T18:59:08.833Z,11.14
2022-11-13T19:04:24.584Z,11.04
2022-11-13T19:09:45.308Z,11.28
2022-11-13T19:15:02.259Z,11.14
2022-11-13T19:20:18.083Z,11.31
2022-11-13T19:25:33.985Z,11.44
2022-11-13T19:30:53.802Z,11.41
2022-11-13T19:36:10.095Z,11.61
2022-11-13T19:41:29.556Z,11.71
2022-11-13T19:46:44.982Z,11.83
2022-11-13T19:52:00.678Z,12.04
2022-11-13T19:57:18.220Z,12.26
2022-11-13T20:02:35.368Z,12.34
2022-11-13T20:07:50.753Z,12.31
2022-11-13T20:13:06.874Z,12.25
2022-11-13T20:18:21.965Z,12.15
2022-11-13T20:23:37.437Z,12.02
2022-11-13T20:28:54.720Z,12.07
2022-11-13T20:34:14.057Z,12.03
2022-11-13T20:40:11.873Z,12.18
2022-11-13T20:45:27.999Z,12.10
2022-11-13T20:50:44.216Z,11.99
2022-11-13T20:56:00.821Z,12.04
2022-11-13T21:01:17.531Z,12.04
2022-11-13T21:06:32.750Z,11.89
2022-11-13T21:11:48.481Z,11.45
2022-11-13T21:17:05.663Z,11.63
2022-11-13T21:22:20.856Z,11.90
2022-11-13T21:27:38.650Z,12.00
2022-11-13T21:32:54.818Z,11.89
2022-11-13T21:38:10.152Z,11.97
2022-11-13T21:43:25.650Z,12.02
2022-11-13T21:48:44.615Z,12.04
2022-11-13T21:54:00.147Z,11.99
2022-11-13T21:59:15.698Z,12.08
2022-11-13T22:04:31.467Z,12.07
2022-11-13T22:09:46.855Z,12.07
2022-11-13T22:15:01.900Z,11.86
2022-11-13T22:20:17.828Z,11.79
2022-11-13T22:25:34.047Z,11.98
2022-11-13T22:30:49.101Z,12.06
2022-11-13T22:36:06.572Z,12.21
2022-11-13T22:41:23.613Z,12.14
2022-11-13T22:46:39.741Z,12.19
2022-11-13T22:51:55.856Z,12.25
2022-11-13T22:57:13.603Z,12.13
2022-11-13T23:02:28.659Z,12.04
2022-11-13T23:07:44.798Z,11.64
2022-11-13T23:12:59.922Z,11.27
2022-11-13T23:18:17.877Z,10.77
2022-11-13T23:23:33.942Z,10.93
2022-11-13T23:28:49.154Z,11.10
2022-11-13T23:34:04.553Z,11.34
2022-11-13T23:39:20.244Z,11.21
2022-11-13T23:44:35.713Z,10.58
2022-11-13T23:49:50.805Z,9.80
2022-11-13T23:55:07.336Z,9.70
